sensor_id;sensor_type;location;lat;lon;timestamp;P1;durP1;ratioP1;P2;durP2;ratioP2
52320;SDS011;38261;54.090;13.382;2023-06-14T00:00:13;11.50;;;4.30;;
52320;SDS011;38261;54.090;13.382;2023-06-14T00:01:37;6.23;;;3.00;;
52320;SDS011;38261;54.090;13.382;2023-06-14T00:02:59;7.37;;;3.70;;
52320;SDS011;38261;54.090;13.382;2023-06-14T00:04:22;7.63;;;3.40;;
52320;SDS011;38261;54.090;13.382;2023-06-14T00:05:47;6.53;;;3.57;;
52320;SDS011;38261;54.090;13.382;2023-06-14T00:07:09;14.03;;;3.90;;
52320;SDS011;38261;54.090;13.382;2023-06-14T00:08:34;7.93;;;3.60;;
52320;SDS011;38261;54.090;13.382;2023-06-14T00:09:56;5.93;;;3.43;;
52320;SDS011;38261;54.090;13.382;2023-06-14T00:11:18;8.63;;;3.20;;
52320;SDS011;38261;54.090;13.382;2023-06-14T00:12:40;7.87;;;3.60;;
52320;SDS011;38261;54.090;13.382;2023-06-14T00:14:03;5.17;;;2.80;;
52320;SDS011;38261;54.090;13.382;2023-06-14T00:15:25;7.03;;;3.23;;
52320;SDS011;38261;54.090;13.382;2023-06-14T00:16:47;4.93;;;3.27;;
52320;SDS011;38261;54.090;13.382;2023-06-14T00:18:09;8.93;;;3.60;;
52320;SDS011;38261;54.090;13.382;2023-06-14T00:19:33;10.03;;;4.40;;
52320;SDS011;38261;54.090;13.382;2023-06-14T00:20:58;6.93;;;3.23;;
52320;SDS011;38261;54.090;13.382;2023-06-14T00:22:20;11.90;;;3.30;;
52320;SDS011;38261;54.090;13.382;2023-06-14T00:23:43;10.57;;;3.13;;
52320;SDS011;38261;54.090;13.382;2023-06-14T00:25:05;5.40;;;3.20;;
52320;SDS011;38261;54.090;13.382;2023-06-14T00:26:47;14.63;;;3.60;;
52320;SDS011;38261;54.090;13.382;2023-06-14T00:28:10;6.97;;;3.77;;
52320;SDS011;38261;54.090;13.382;2023-06-14T00:29:32;8.40;;;3.63;;
52320;SDS011;38261;54.090;13.382;2023-06-14T00:30:54;9.10;;;3.57;;
52320;SDS011;38261;54.090;13.382;2023-06-14T00:32:17;6.83;;;3.87;;
52320;SDS011;38261;54.090;13.382;2023-06-14T00:33:40;5.43;;;3.80;;
52320;SDS011;38261;54.090;13.382;2023-06-14T00:35:02;9.37;;;4.07;;
52320;SDS011;38261;54.090;13.382;2023-06-14T00:36:24;8.50;;;3.70;;
52320;SDS011;38261;54.090;13.382;2023-06-14T00:37:46;14.87;;;4.17;;
52320;SDS011;38261;54.090;13.382;2023-06-14T00:39:08;6.57;;;3.70;;
52320;SDS011;38261;54.090;13.382;2023-06-14T00:40:31;8.70;;;3.80;;
52320;SDS011;38261;54.090;13.382;2023-06-14T00:41:53;8.30;;;3.20;;
52320;SDS011;38261;54.090;13.382;2023-06-14T00:43:15;6.80;;;3.40;;
52320;SDS011;38261;54.090;13.382;2023-06-14T00:44:38;8.23;;;3.50;;
52320;SDS011;38261;54.090;13.382;2023-06-14T00:46:00;11.17;;;3.87;;
52320;SDS011;38261;54.090;13.382;2023-06-14T00:47:22;8.73;;;3.53;;
52320;SDS011;38261;54.090;13.382;2023-06-14T00:48:45;6.40;;;3.70;;
52320;SDS011;38261;54.090;13.382;2023-06-14T00:50:08;7.40;;;3.50;;
52320;SDS011;38261;54.090;13.382;2023-06-14T00:51:31;18.27;;;3.67;;
52320;SDS011;38261;54.090;13.382;2023-06-14T00:52:54;7.40;;;3.77;;
52320;SDS011;38261;54.090;13.382;2023-06-14T00:54:16;5.90;;;3.70;;
52320;SDS011;38261;54.090;13.382;2023-06-14T00:55:38;14.97;;;3.87;;
52320;SDS011;38261;54.090;13.382;2023-06-14T00:57:00;5.93;;;3.60;;
52320;SDS011;38261;54.090;13.382;2023-06-14T00:58:23;8.37;;;3.53;;
52320;SDS011;38261;54.090;13.382;2023-06-14T00:59:46;7.17;;;3.50;;
52320;SDS011;38261;54.090;13.382;2023-06-14T01:01:09;7.77;;;3.30;;
52320;SDS011;38261;54.090;13.382;2023-06-14T01:02:32;6.60;;;3.43;;
52320;SDS011;38261;54.090;13.382;2023-06-14T01:03:54;10.00;;;3.73;;
52320;SDS011;38261;54.090;13.382;2023-06-14T01:05:17;8.37;;;4.37;;
52320;SDS011;38261;54.090;13.382;2023-06-14T01:06:45;8.90;;;3.60;;
52320;SDS011;38261;54.090;13.382;2023-06-14T01:08:33;5.97;;;3.83;;
52320;SDS011;38261;54.090;13.382;2023-06-14T01:13:27;8.63;;;3.87;;
52320;SDS011;38261;54.090;13.382;2023-06-14T01:14:53;17.97;;;4.17;;
52320;SDS011;38261;54.090;13.382;2023-06-14T01:16:16;9.93;;;4.03;;
52320;SDS011;38261;54.090;13.382;2023-06-14T01:17:39;8.13;;;3.90;;
52320;SDS011;38261;54.090;13.382;2023-06-14T01:19:05;5.93;;;3.77;;
52320;SDS011;38261;54.090;13.382;2023-06-14T01:20:34;9.03;;;4.33;;
52320;SDS011;38261;54.090;13.382;2023-06-14T01:22:00;7.90;;;3.57;;
52320;SDS011;38261;54.090;13.382;2023-06-14T01:23:23;6.20;;;3.67;;
52320;SDS011;38261;54.090;13.382;2023-06-14T01:24:46;9.57;;;4.17;;
52320;SDS011;38261;54.090;13.382;2023-06-14T01:26:09;6.57;;;4.27;;
52320;SDS011;38261;54.090;13.382;2023-06-14T01:27:31;8.03;;;3.90;;
52320;SDS011;38261;54.090;13.382;2023-06-14T01:28:54;8.53;;;3.70;;
52320;SDS011;38261;54.090;13.382;2023-06-14T01:30:20;7.70;;;3.60;;
52320;SDS011;38261;54.090;13.382;2023-06-14T01:31:44;8.20;;;3.50;;
52320;SDS011;38261;54.090;13.382;2023-06-14T01:33:07;8.30;;;3.33;;
52320;SDS011;38261;54.090;13.382;2023-06-14T01:34:30;9.77;;;3.90;;
52320;SDS011;38261;54.090;13.382;2023-06-14T01:35:53;7.30;;;3.37;;
52320;SDS011;38261;54.090;13.382;2023-06-14T01:37:17;6.67;;;3.43;;
52320;SDS011;38261;54.090;13.382;2023-06-14T01:38:41;8.57;;;4.20;;
52320;SDS011;38261;54.090;13.382;2023-06-14T01:40:05;8.50;;;3.43;;
52320;SDS011;38261;54.090;13.382;2023-06-14T01:41:28;8.07;;;3.27;;
52320;SDS011;38261;54.090;13.382;2023-06-14T01:42:52;5.13;;;3.40;;
52320;SDS011;38261;54.090;13.382;2023-06-14T01:44:16;4.57;;;2.87;;
52320;SDS011;38261;54.090;13.382;2023-06-14T01:45:44;6.90;;;3.03;;
52320;SDS011;38261;54.090;13.382;2023-06-14T01:47:08;7.93;;;3.37;;
52320;SDS011;38261;54.090;13.382;2023-06-14T01:48:31;5.60;;;3.40;;
52320;SDS011;38261;54.090;13.382;2023-06-14T01:49:54;7.97;;;3.67;;
52320;SDS011;38261;54.090;13.382;2023-06-14T01:51:16;5.43;;;3.40;;
52320;SDS011;38261;54.090;13.382;2023-06-14T01:52:38;7.07;;;3.33;;
52320;SDS011;38261;54.090;13.382;2023-06-14T01:54:00;6.77;;;3.60;;
52320;SDS011;38261;54.090;13.382;2023-06-14T01:55:22;7.30;;;3.10;;
52320;SDS011;38261;54.090;13.382;2023-06-14T01:56:46;6.00;;;3.20;;
52320;SDS011;38261;54.090;13.382;2023-06-14T01:58:08;4.40;;;3.30;;
52320;SDS011;38261;54.090;13.382;2023-06-14T01:59:31;7.87;;;3.87;;
52320;SDS011;38261;54.090;13.382;2023-06-14T02:00:56;8.60;;;3.63;;
52320;SDS011;38261;54.090;13.382;2023-06-14T02:02:19;9.40;;;4.10;;
52320;SDS011;38261;54.090;13.382;2023-06-14T02:03:41;12.20;;;3.73;;
52320;SDS011;38261;54.090;13.382;2023-06-14T02:05:06;4.83;;;2.90;;
52320;SDS011;38261;54.090;13.382;2023-06-14T02:06:29;4.90;;;3.40;;
52320;SDS011;38261;54.090;13.382;2023-06-14T02:07:51;5.37;;;3.30;;
52320;SDS011;38261;54.090;13.382;2023-06-14T02:09:14;8.13;;;3.33;;
52320;SDS011;38261;54.090;13.382;2023-06-14T02:10:37;4.90;;;3.30;;
52320;SDS011;38261;54.090;13.382;2023-06-14T02:11:59;5.93;;;2.97;;
52320;SDS011;38261;54.090;13.382;2023-06-14T02:13:21;9.80;;;3.90;;
52320;SDS011;38261;54.090;13.382;2023-06-14T02:14:43;8.07;;;3.70;;
52320;SDS011;38261;54.090;13.382;2023-06-14T02:16:06;12.30;;;3.63;;
52320;SDS011;38261;54.090;13.382;2023-06-14T02:17:28;5.80;;;3.37;;
52320;SDS011;38261;54.090;13.382;2023-06-14T02:18:50;6.50;;;3.77;;
52320;SDS011;38261;54.090;13.382;2023-06-14T02:20:13;8.63;;;3.97;;
52320;SDS011;38261;54.090;13.382;2023-06-14T02:21:36;7.53;;;3.53;;
52320;SDS011;38261;54.090;13.382;2023-06-14T02:22:58;6.20;;;3.70;;
52320;SDS011;38261;54.090;13.382;2023-06-14T02:24:21;6.10;;;4.00;;
52320;SDS011;38261;54.090;13.382;2023-06-14T02:25:45;8.73;;;3.90;;
52320;SDS011;38261;54.090;13.382;2023-06-14T02:27:08;7.57;;;3.97;;
52320;SDS011;38261;54.090;13.382;2023-06-14T02:28:31;5.13;;;3.50;;
52320;SDS011;38261;54.090;13.382;2023-06-14T02:29:53;7.90;;;4.20;;
52320;SDS011;38261;54.090;13.382;2023-06-14T02:31:15;9.43;;;4.03;;
52320;SDS011;38261;54.090;13.382;2023-06-14T02:34:08;10.27;;;4.10;;
52320;SDS011;38261;54.090;13.382;2023-06-14T02:35:30;6.70;;;4.30;;
52320;SDS011;38261;54.090;13.382;2023-06-14T02:36:52;6.27;;;3.73;;
52320;SDS011;38261;54.090;13.382;2023-06-14T02:38:15;7.03;;;3.40;;
52320;SDS011;38261;54.090;13.382;2023-06-14T02:39:37;6.20;;;3.60;;
52320;SDS011;38261;54.090;13.382;2023-06-14T02:40:59;14.40;;;4.20;;
52320;SDS011;38261;54.090;13.382;2023-06-14T02:42:23;5.10;;;3.40;;
52320;SDS011;38261;54.090;13.382;2023-06-14T02:43:45;8.73;;;3.20;;
52320;SDS011;38261;54.090;13.382;2023-06-14T02:45:07;4.90;;;3.40;;
52320;SDS011;38261;54.090;13.382;2023-06-14T02:46:30;10.10;;;4.00;;
52320;SDS011;38261;54.090;13.382;2023-06-14T02:47:52;4.87;;;3.50;;
52320;SDS011;38261;54.090;13.382;2023-06-14T02:49:14;6.80;;;3.43;;
52320;SDS011;38261;54.090;13.382;2023-06-14T02:50:37;8.57;;;3.50;;
52320;SDS011;38261;54.090;13.382;2023-06-14T02:51:59;6.03;;;3.20;;
52320;SDS011;38261;54.090;13.382;2023-06-14T02:53:21;9.47;;;3.10;;
52320;SDS011;38261;54.090;13.382;2023-06-14T02:54:43;8.77;;;3.87;;
52320;SDS011;38261;54.090;13.382;2023-06-14T02:56:05;5.30;;;3.27;;
52320;SDS011;38261;54.090;13.382;2023-06-14T02:57:27;10.73;;;4.33;;
52320;SDS011;38261;54.090;13.382;2023-06-14T02:58:49;5.30;;;3.50;;
52320;SDS011;38261;54.090;13.382;2023-06-14T03:00:12;7.57;;;3.67;;
52320;SDS011;38261;54.090;13.382;2023-06-14T03:01:36;6.23;;;3.70;;
52320;SDS011;38261;54.090;13.382;2023-06-14T03:03:00;10.30;;;4.30;;
52320;SDS011;38261;54.090;13.382;2023-06-14T03:04:23;8.07;;;3.90;;
52320;SDS011;38261;54.090;13.382;2023-06-14T03:05:47;6.60;;;4.27;;
52320;SDS011;38261;54.090;13.382;2023-06-14T03:07:11;9.43;;;3.60;;
52320;SDS011;38261;54.090;13.382;2023-06-14T03:08:33;6.23;;;3.73;;
52320;SDS011;38261;54.090;13.382;2023-06-14T03:10:00;9.97;;;3.73;;
52320;SDS011;38261;54.090;13.382;2023-06-14T03:11:22;12.57;;;4.20;;
52320;SDS011;38261;54.090;13.382;2023-06-14T03:12:44;5.23;;;3.80;;
52320;SDS011;38261;54.090;13.382;2023-06-14T03:14:06;7.87;;;4.20;;
52320;SDS011;38261;54.090;13.382;2023-06-14T03:15:29;7.73;;;4.07;;
52320;SDS011;38261;54.090;13.382;2023-06-14T03:16:53;14.00;;;3.80;;
52320;SDS011;38261;54.090;13.382;2023-06-14T03:18:18;5.77;;;3.23;;
52320;SDS011;38261;54.090;13.382;2023-06-14T03:19:40;6.67;;;3.57;;
52320;SDS011;38261;54.090;13.382;2023-06-14T03:21:03;9.43;;;3.30;;
52320;SDS011;38261;54.090;13.382;2023-06-14T03:22:25;10.97;;;3.80;;
52320;SDS011;38261;54.090;13.382;2023-06-14T03:23:48;6.87;;;3.63;;
52320;SDS011;38261;54.090;13.382;2023-06-14T03:25:10;5.53;;;3.43;;
52320;SDS011;38261;54.090;13.382;2023-06-14T03:26:32;8.10;;;3.80;;
52320;SDS011;38261;54.090;13.382;2023-06-14T03:27:56;8.13;;;3.10;;
52320;SDS011;38261;54.090;13.382;2023-06-14T03:29:18;6.20;;;3.97;;
52320;SDS011;38261;54.090;13.382;2023-06-14T03:30:40;11.70;;;3.90;;
52320;SDS011;38261;54.090;13.382;2023-06-14T03:32:02;8.67;;;3.40;;
52320;SDS011;38261;54.090;13.382;2023-06-14T03:33:25;10.97;;;2.90;;
52320;SDS011;38261;54.090;13.382;2023-06-14T03:34:47;5.77;;;2.90;;
52320;SDS011;38261;54.090;13.382;2023-06-14T03:36:09;6.97;;;3.67;;
52320;SDS011;38261;54.090;13.382;2023-06-14T03:37:31;10.53;;;3.63;;
52320;SDS011;38261;54.090;13.382;2023-06-14T03:38:54;7.50;;;3.10;;
52320;SDS011;38261;54.090;13.382;2023-06-14T03:40:17;6.07;;;3.77;;
52320;SDS011;38261;54.090;13.382;2023-06-14T03:41:41;5.53;;;2.97;;
52320;SDS011;38261;54.090;13.382;2023-06-14T03:43:03;4.33;;;2.63;;
52320;SDS011;38261;54.090;13.382;2023-06-14T03:44:26;4.97;;;3.17;;
52320;SDS011;38261;54.090;13.382;2023-06-14T03:45:48;12.20;;;2.90;;
52320;SDS011;38261;54.090;13.382;2023-06-14T03:47:11;5.33;;;2.63;;
52320;SDS011;38261;54.090;13.382;2023-06-14T03:48:33;11.13;;;3.13;;
52320;SDS011;38261;54.090;13.382;2023-06-14T03:49:55;6.37;;;3.13;;
52320;SDS011;38261;54.090;13.382;2023-06-14T03:51:17;5.33;;;3.50;;
52320;SDS011;38261;54.090;13.382;2023-06-14T03:52:40;6.50;;;3.10;;
52320;SDS011;38261;54.090;13.382;2023-06-14T03:54:04;10.70;;;3.27;;
52320;SDS011;38261;54.090;13.382;2023-06-14T03:55:47;7.90;;;4.40;;
52320;SDS011;38261;54.090;13.382;2023-06-14T03:57:13;6.60;;;2.90;;
52320;SDS011;38261;54.090;13.382;2023-06-14T03:58:35;6.27;;;3.00;;
52320;SDS011;38261;54.090;13.382;2023-06-14T03:59:58;5.53;;;3.00;;
52320;SDS011;38261;54.090;13.382;2023-06-14T04:01:20;5.83;;;3.20;;
52320;SDS011;38261;54.090;13.382;2023-06-14T04:02:42;6.47;;;3.37;;
52320;SDS011;38261;54.090;13.382;2023-06-14T04:04:05;6.07;;;2.90;;
52320;SDS011;38261;54.090;13.382;2023-06-14T04:05:28;7.03;;;3.53;;
52320;SDS011;38261;54.090;13.382;2023-06-14T04:06:50;4.73;;;3.20;;
52320;SDS011;38261;54.090;13.382;2023-06-14T04:08:13;4.10;;;3.10;;
52320;SDS011;38261;54.090;13.382;2023-06-14T04:09:36;4.87;;;2.97;;
52320;SDS011;38261;54.090;13.382;2023-06-14T04:10:58;11.77;;;3.50;;
52320;SDS011;38261;54.090;13.382;2023-06-14T04:12:21;8.03;;;3.50;;
52320;SDS011;38261;54.090;13.382;2023-06-14T04:13:43;3.17;;;2.80;;
52320;SDS011;38261;54.090;13.382;2023-06-14T04:15:06;6.33;;;3.30;;
52320;SDS011;38261;54.090;13.382;2023-06-14T04:16:42;4.20;;;3.00;;
52320;SDS011;38261;54.090;13.382;2023-06-14T04:18:05;4.53;;;2.63;;
52320;SDS011;38261;54.090;13.382;2023-06-14T04:19:27;4.50;;;3.50;;
52320;SDS011;38261;54.090;13.382;2023-06-14T04:20:49;4.40;;;3.10;;
52320;SDS011;38261;54.090;13.382;2023-06-14T04:22:11;7.87;;;3.80;;
52320;SDS011;38261;54.090;13.382;2023-06-14T04:23:34;6.93;;;3.20;;
52320;SDS011;38261;54.090;13.382;2023-06-14T04:24:56;5.33;;;3.23;;
52320;SDS011;38261;54.090;13.382;2023-06-14T04:26:26;7.90;;;3.30;;
52320;SDS011;38261;54.090;13.382;2023-06-14T04:27:51;5.77;;;3.07;;
52320;SDS011;38261;54.090;13.382;2023-06-14T04:29:14;7.10;;;3.50;;
52320;SDS011;38261;54.090;13.382;2023-06-14T04:30:38;4.00;;;2.70;;
52320;SDS011;38261;54.090;13.382;2023-06-14T04:32:02;8.53;;;2.90;;
52320;SDS011;38261;54.090;13.382;2023-06-14T04:33:24;8.73;;;2.97;;
52320;SDS011;38261;54.090;13.382;2023-06-14T04:34:48;5.00;;;2.57;;
52320;SDS011;38261;54.090;13.382;2023-06-14T04:36:10;4.50;;;3.00;;
52320;SDS011;38261;54.090;13.382;2023-06-14T04:37:35;4.67;;;3.20;;
52320;SDS011;38261;54.090;13.382;2023-06-14T04:39:01;4.30;;;3.03;;
52320;SDS011;38261;54.090;13.382;2023-06-14T04:40:24;3.40;;;2.70;;
52320;SDS011;38261;54.090;13.382;2023-06-14T04:41:46;4.07;;;2.80;;
52320;SDS011;38261;54.090;13.382;2023-06-14T04:43:09;4.80;;;3.07;;
52320;SDS011;38261;54.090;13.382;2023-06-14T04:44:33;7.93;;;2.57;;
52320;SDS011;38261;54.090;13.382;2023-06-14T04:45:56;6.17;;;2.67;;
52320;SDS011;38261;54.090;13.382;2023-06-14T04:47:18;5.60;;;3.23;;
52320;SDS011;38261;54.090;13.382;2023-06-14T04:48:42;4.50;;;2.70;;
52320;SDS011;38261;54.090;13.382;2023-06-14T04:50:04;5.83;;;2.80;;
52320;SDS011;38261;54.090;13.382;2023-06-14T04:51:26;3.70;;;3.10;;
52320;SDS011;38261;54.090;13.382;2023-06-14T04:52:52;6.20;;;3.20;;
52320;SDS011;38261;54.090;13.382;2023-06-14T04:54:15;3.30;;;2.50;;
52320;SDS011;38261;54.090;13.382;2023-06-14T04:55:38;9.73;;;3.40;;
52320;SDS011;38261;54.090;13.382;2023-06-14T04:57:00;6.40;;;3.03;;
52320;SDS011;38261;54.090;13.382;2023-06-14T04:58:23;4.40;;;3.00;;
52320;SDS011;38261;54.090;13.382;2023-06-14T04:59:46;6.50;;;2.93;;
52320;SDS011;38261;54.090;13.382;2023-06-14T05:01:08;7.30;;;3.00;;
52320;SDS011;38261;54.090;13.382;2023-06-14T05:02:31;5.50;;;3.00;;
52320;SDS011;38261;54.090;13.382;2023-06-14T05:03:54;6.90;;;3.17;;
52320;SDS011;38261;54.090;13.382;2023-06-14T05:05:17;5.10;;;2.67;;
52320;SDS011;38261;54.090;13.382;2023-06-14T05:06:44;5.97;;;2.47;;
52320;SDS011;38261;54.090;13.382;2023-06-14T05:08:07;3.40;;;2.50;;
52320;SDS011;38261;54.090;13.382;2023-06-14T05:09:31;7.10;;;2.87;;
52320;SDS011;38261;54.090;13.382;2023-06-14T05:10:53;7.93;;;3.03;;
52320;SDS011;38261;54.090;13.382;2023-06-14T05:12:16;11.20;;;2.63;;
52320;SDS011;38261;54.090;13.382;2023-06-14T05:13:40;8.67;;;3.20;;
52320;SDS011;38261;54.090;13.382;2023-06-14T05:15:03;7.03;;;2.80;;
52320;SDS011;38261;54.090;13.382;2023-06-14T05:16:26;4.90;;;2.70;;
52320;SDS011;38261;54.090;13.382;2023-06-14T05:17:49;6.97;;;3.00;;
52320;SDS011;38261;54.090;13.382;2023-06-14T05:19:16;8.10;;;3.30;;
52320;SDS011;38261;54.090;13.382;2023-06-14T05:20:40;6.90;;;2.87;;
52320;SDS011;38261;54.090;13.382;2023-06-14T05:22:04;7.47;;;3.23;;
52320;SDS011;38261;54.090;13.382;2023-06-14T05:23:26;7.77;;;3.70;;
52320;SDS011;38261;54.090;13.382;2023-06-14T05:24:49;18.47;;;3.90;;
52320;SDS011;38261;54.090;13.382;2023-06-14T05:26:11;4.00;;;3.27;;
52320;SDS011;38261;54.090;13.382;2023-06-14T05:27:33;14.77;;;3.53;;
52320;SDS011;38261;54.090;13.382;2023-06-14T05:28:57;6.43;;;3.20;;
52320;SDS011;38261;54.090;13.382;2023-06-14T05:30:21;6.27;;;2.93;;
52320;SDS011;38261;54.090;13.382;2023-06-14T05:31:44;12.27;;;3.17;;
52320;SDS011;38261;54.090;13.382;2023-06-14T05:33:06;4.57;;;3.20;;
52320;SDS011;38261;54.090;13.382;2023-06-14T05:34:28;8.33;;;2.40;;
52320;SDS011;38261;54.090;13.382;2023-06-14T05:35:51;8.23;;;2.83;;
52320;SDS011;38261;54.090;13.382;2023-06-14T05:37:13;8.77;;;2.77;;
52320;SDS011;38261;54.090;13.382;2023-06-14T05:38:35;8.20;;;3.30;;
52320;SDS011;38261;54.090;13.382;2023-06-14T05:39:57;7.87;;;2.73;;
52320;SDS011;38261;54.090;13.382;2023-06-14T05:41:19;4.47;;;2.90;;
52320;SDS011;38261;54.090;13.382;2023-06-14T05:42:42;4.37;;;2.70;;
52320;SDS011;38261;54.090;13.382;2023-06-14T05:44:04;8.20;;;3.20;;
52320;SDS011;38261;54.090;13.382;2023-06-14T05:45:26;5.03;;;2.63;;
52320;SDS011;38261;54.090;13.382;2023-06-14T05:46:48;15.73;;;3.40;;
52320;SDS011;38261;54.090;13.382;2023-06-14T05:48:10;4.70;;;2.80;;
52320;SDS011;38261;54.090;13.382;2023-06-14T05:49:33;12.77;;;3.40;;
52320;SDS011;38261;54.090;13.382;2023-06-14T05:50:55;8.03;;;2.30;;
52320;SDS011;38261;54.090;13.382;2023-06-14T05:52:17;6.20;;;2.40;;
52320;SDS011;38261;54.090;13.382;2023-06-14T05:53:39;5.00;;;2.33;;
52320;SDS011;38261;54.090;13.382;2023-06-14T05:55:02;4.60;;;2.70;;
52320;SDS011;38261;54.090;13.382;2023-06-14T05:56:25;4.30;;;2.30;;
52320;SDS011;38261;54.090;13.382;2023-06-14T05:57:48;6.27;;;2.77;;
52320;SDS011;38261;54.090;13.382;2023-06-14T05:59:10;8.30;;;2.90;;
52320;SDS011;38261;54.090;13.382;2023-06-14T06:00:32;6.23;;;2.87;;
52320;SDS011;38261;54.090;13.382;2023-06-14T06:01:54;11.60;;;2.97;;
52320;SDS011;38261;54.090;13.382;2023-06-14T06:03:16;2.80;;;2.20;;
52320;SDS011;38261;54.090;13.382;2023-06-14T06:04:39;5.43;;;2.93;;
52320;SDS011;38261;54.090;13.382;2023-06-14T06:06:01;3.90;;;2.70;;
52320;SDS011;38261;54.090;13.382;2023-06-14T06:07:24;7.17;;;2.50;;
52320;SDS011;38261;54.090;13.382;2023-06-14T06:08:46;6.10;;;2.60;;
52320;SDS011;38261;54.090;13.382;2023-06-14T06:10:08;6.47;;;2.80;;
52320;SDS011;38261;54.090;13.382;2023-06-14T06:11:31;4.90;;;2.80;;
52320;SDS011;38261;54.090;13.382;2023-06-14T06:13:09;4.80;;;3.00;;
52320;SDS011;38261;54.090;13.382;2023-06-14T06:14:32;6.10;;;2.40;;
52320;SDS011;38261;54.090;13.382;2023-06-14T06:15:55;4.60;;;2.50;;
52320;SDS011;38261;54.090;13.382;2023-06-14T06:17:18;6.27;;;3.30;;
52320;SDS011;38261;54.090;13.382;2023-06-14T06:18:40;11.73;;;2.70;;
52320;SDS011;38261;54.090;13.382;2023-06-14T06:20:05;9.63;;;2.83;;
52320;SDS011;38261;54.090;13.382;2023-06-14T06:21:29;5.80;;;2.80;;
52320;SDS011;38261;54.090;13.382;2023-06-14T06:22:52;7.77;;;3.23;;
52320;SDS011;38261;54.090;13.382;2023-06-14T06:24:14;5.13;;;2.33;;
52320;SDS011;38261;54.090;13.382;2023-06-14T06:25:36;4.33;;;3.00;;
52320;SDS011;38261;54.090;13.382;2023-06-14T06:26:58;9.33;;;2.87;;
52320;SDS011;38261;54.090;13.382;2023-06-14T06:28:21;5.23;;;2.33;;
52320;SDS011;38261;54.090;13.382;2023-06-14T06:29:43;11.07;;;3.40;;
52320;SDS011;38261;54.090;13.382;2023-06-14T06:31:06;4.47;;;2.83;;
52320;SDS011;38261;54.090;13.382;2023-06-14T06:32:28;11.47;;;3.13;;
52320;SDS011;38261;54.090;13.382;2023-06-14T06:33:50;4.50;;;2.77;;
52320;SDS011;38261;54.090;13.382;2023-06-14T06:35:13;9.93;;;2.43;;
52320;SDS011;38261;54.090;13.382;2023-06-14T06:36:36;6.67;;;2.97;;
52320;SDS011;38261;54.090;13.382;2023-06-14T06:37:58;6.03;;;3.10;;
52320;SDS011;38261;54.090;13.382;2023-06-14T06:39:21;3.80;;;2.90;;
52320;SDS011;38261;54.090;13.382;2023-06-14T06:40:44;5.67;;;2.80;;
52320;SDS011;38261;54.090;13.382;2023-06-14T06:42:06;3.47;;;2.77;;
52320;SDS011;38261;54.090;13.382;2023-06-14T06:43:28;5.20;;;3.03;;
52320;SDS011;38261;54.090;13.382;2023-06-14T06:44:50;6.33;;;2.90;;
52320;SDS011;38261;54.090;13.382;2023-06-14T06:46:12;5.70;;;3.03;;
52320;SDS011;38261;54.090;13.382;2023-06-14T06:47:35;8.63;;;2.50;;
52320;SDS011;38261;54.090;13.382;2023-06-14T06:48:57;6.30;;;2.80;;
52320;SDS011;38261;54.090;13.382;2023-06-14T06:50:19;3.47;;;2.60;;
52320;SDS011;38261;54.090;13.382;2023-06-14T06:51:41;4.63;;;2.63;;
52320;SDS011;38261;54.090;13.382;2023-06-14T06:53:07;5.10;;;2.27;;
52320;SDS011;38261;54.090;13.382;2023-06-14T06:54:29;5.93;;;3.00;;
52320;SDS011;38261;54.090;13.382;2023-06-14T06:55:52;4.03;;;2.63;;
52320;SDS011;38261;54.090;13.382;2023-06-14T06:57:14;5.10;;;2.73;;
52320;SDS011;38261;54.090;13.382;2023-06-14T06:58:36;3.50;;;2.53;;
52320;SDS011;38261;54.090;13.382;2023-06-14T06:59:58;6.20;;;3.03;;
52320;SDS011;38261;54.090;13.382;2023-06-14T07:01:20;5.20;;;3.20;;
52320;SDS011;38261;54.090;13.382;2023-06-14T07:02:43;5.97;;;3.40;;
52320;SDS011;38261;54.090;13.382;2023-06-14T07:04:05;7.70;;;2.67;;
52320;SDS011;38261;54.090;13.382;2023-06-14T07:05:27;4.20;;;2.93;;
52320;SDS011;38261;54.090;13.382;2023-06-14T07:06:49;7.90;;;2.70;;
52320;SDS011;38261;54.090;13.382;2023-06-14T07:08:11;6.40;;;2.87;;
52320;SDS011;38261;54.090;13.382;2023-06-14T07:09:33;8.10;;;2.80;;
52320;SDS011;38261;54.090;13.382;2023-06-14T07:10:55;4.30;;;2.37;;
52320;SDS011;38261;54.090;13.382;2023-06-14T07:12:17;3.00;;;2.53;;
52320;SDS011;38261;54.090;13.382;2023-06-14T07:13:40;6.67;;;2.90;;
52320;SDS011;38261;54.090;13.382;2023-06-14T07:15:11;5.00;;;2.77;;
52320;SDS011;38261;54.090;13.382;2023-06-14T07:16:54;7.50;;;3.23;;
52320;SDS011;38261;54.090;13.382;2023-06-14T07:18:16;4.43;;;2.97;;
52320;SDS011;38261;54.090;13.382;2023-06-14T07:19:38;5.70;;;2.50;;
52320;SDS011;38261;54.090;13.382;2023-06-14T07:21:01;4.37;;;2.77;;
52320;SDS011;38261;54.090;13.382;2023-06-14T07:22:23;8.33;;;3.00;;
52320;SDS011;38261;54.090;13.382;2023-06-14T07:23:45;6.00;;;3.33;;
52320;SDS011;38261;54.090;13.382;2023-06-14T07:25:08;6.13;;;2.90;;
52320;SDS011;38261;54.090;13.382;2023-06-14T07:26:34;4.63;;;2.30;;
52320;SDS011;38261;54.090;13.382;2023-06-14T07:27:57;4.13;;;3.17;;
52320;SDS011;38261;54.090;13.382;2023-06-14T07:29:19;6.27;;;2.33;;
52320;SDS011;38261;54.090;13.382;2023-06-14T07:30:42;14.00;;;3.37;;
52320;SDS011;38261;54.090;13.382;2023-06-14T07:32:04;6.37;;;2.70;;
52320;SDS011;38261;54.090;13.382;2023-06-14T07:33:27;12.40;;;3.20;;
52320;SDS011;38261;54.090;13.382;2023-06-14T07:34:50;5.13;;;3.10;;
52320;SDS011;38261;54.090;13.382;2023-06-14T07:36:12;4.90;;;2.93;;
52320;SDS011;38261;54.090;13.382;2023-06-14T07:37:34;6.20;;;2.50;;
52320;SDS011;38261;54.090;13.382;2023-06-14T07:38:56;4.43;;;2.83;;
52320;SDS011;38261;54.090;13.382;2023-06-14T07:40:18;7.20;;;2.53;;
52320;SDS011;38261;54.090;13.382;2023-06-14T07:41:40;6.07;;;2.47;;
52320;SDS011;38261;54.090;13.382;2023-06-14T07:43:02;4.63;;;2.33;;
52320;SDS011;38261;54.090;13.382;2023-06-14T07:44:27;9.40;;;2.80;;
52320;SDS011;38261;54.090;13.382;2023-06-14T07:45:52;5.17;;;2.40;;
52320;SDS011;38261;54.090;13.382;2023-06-14T07:47:27;8.03;;;2.50;;
52320;SDS011;38261;54.090;13.382;2023-06-14T07:48:50;7.03;;;2.40;;
52320;SDS011;38261;54.090;13.382;2023-06-14T07:50:13;5.13;;;1.87;;
52320;SDS011;38261;54.090;13.382;2023-06-14T07:51:35;3.57;;;2.63;;
52320;SDS011;38261;54.090;13.382;2023-06-14T07:52:57;8.13;;;2.20;;
52320;SDS011;38261;54.090;13.382;2023-06-14T07:54:19;5.23;;;2.90;;
52320;SDS011;38261;54.090;13.382;2023-06-14T07:55:46;5.70;;;2.40;;
52320;SDS011;38261;54.090;13.382;2023-06-14T07:57:14;4.07;;;2.50;;
52320;SDS011;38261;54.090;13.382;2023-06-14T07:58:36;3.60;;;2.10;;
52320;SDS011;38261;54.090;13.382;2023-06-14T07:59:58;5.13;;;2.60;;
52320;SDS011;38261;54.090;13.382;2023-06-14T08:01:20;4.83;;;2.50;;
52320;SDS011;38261;54.090;13.382;2023-06-14T08:02:43;5.90;;;2.67;;
52320;SDS011;38261;54.090;13.382;2023-06-14T08:04:06;6.70;;;2.60;;
52320;SDS011;38261;54.090;13.382;2023-06-14T08:05:28;4.83;;;2.40;;
52320;SDS011;38261;54.090;13.382;2023-06-14T08:06:50;5.80;;;2.53;;
52320;SDS011;38261;54.090;13.382;2023-06-14T08:08:13;9.53;;;2.80;;
52320;SDS011;38261;54.090;13.382;2023-06-14T08:09:35;5.37;;;2.30;;
52320;SDS011;38261;54.090;13.382;2023-06-14T08:10:59;4.10;;;2.47;;
52320;SDS011;38261;54.090;13.382;2023-06-14T08:12:21;6.03;;;2.10;;
52320;SDS011;38261;54.090;13.382;2023-06-14T08:13:44;5.30;;;2.33;;
52320;SDS011;38261;54.090;13.382;2023-06-14T08:15:06;7.13;;;2.53;;
52320;SDS011;38261;54.090;13.382;2023-06-14T08:16:36;9.63;;;2.13;;
52320;SDS011;38261;54.090;13.382;2023-06-14T08:17:59;9.77;;;2.47;;